sensor_id;sensor_type;location;lat;lon;timestamp;pressure;altitude;pressure_sealevel;temperature;humidity
6532;BME280;3299;42.004;24.868;2024-02-15T00:01:26;98514.06;;;9.69;56.39
6532;BME280;3299;42.004;24.868;2024-02-15T00:03:51;98505.34;;;9.58;56.34
6532;BME280;3299;42.004;24.868;2024-02-15T00:06:20;98463.63;;;9.38;56.78
6532;BME280;3299;42.004;24.868;2024-02-15T00:08:48;98444.78;;;9.09;57.16
6532;BME280;3299;42.004;24.868;2024-02-15T00:11:15;98487.88;;;9.35;57.60
6532;BME280;3299;42.004;24.868;2024-02-15T00:13:40;98440.91;;;9.16;56.75
6532;BME280;3299;42.004;24.868;2024-02-15T00:16:06;98501.31;;;9.54;57.31
6532;BME280;3299;42.004;24.868;2024-02-15T00:18:32;98521.59;;;9.60;57.50
6532;BME280;3299;42.004;24.868;2024-02-15T00:20:57;98501.94;;;9.57;56.60
6532;BME280;3299;42.004;24.868;2024-02-15T00:23:25;98467.63;;;9.29;57.12
6532;BME280;3299;42.004;24.868;2024-02-15T00:25:50;98459.13;;;9.27;56.83
6532;BME280;3299;42.004;24.868;2024-02-15T00:28:16;98467.03;;;9.38;56.80
6532;BME280;3299;42.004;24.868;2024-02-15T00:30:41;98530.13;;;9.74;56.35
6532;BME280;3299;42.004;24.868;2024-02-15T00:33:07;98489.31;;;9.53;56.10
6532;BME280;3299;42.004;24.868;2024-02-15T00:35:32;98513.53;;;9.64;56.40
6532;BME280;3299;42.004;24.868;2024-02-15T00:37:58;98436.22;;;9.09;57.10
6532;BME280;3299;42.004;24.868;2024-02-15T00:40:23;98506.81;;;9.62;56.81
6532;BME280;3299;42.004;24.868;2024-02-15T00:42:49;98474.59;;;9.41;57.42
6532;BME280;3299;42.004;24.868;2024-02-15T00:45:14;98445.16;;;9.17;57.83
6532;BME280;3299;42.004;24.868;2024-02-15T00:47:40;98429.66;;;9.17;58.07
6532;BME280;3299;42.004;24.868;2024-02-15T00:50:08;98516.34;;;9.74;56.93
6532;BME280;3299;42.004;24.868;2024-02-15T00:52:34;98512.75;;;9.76;56.87
6532;BME280;3299;42.004;24.868;2024-02-15T00:54:59;98470.16;;;9.43;57.16
6532;BME280;3299;42.004;24.868;2024-02-15T00:57:24;98469.22;;;9.44;56.08
6532;BME280;3299;42.004;24.868;2024-02-15T00:59:50;98512.50;;;9.67;56.63
6532;BME280;3299;42.004;24.868;2024-02-15T01:02:17;98517.28;;;9.73;55.86
6532;BME280;3299;42.004;24.868;2024-02-15T01:04:43;98492.06;;;9.64;55.93
6532;BME280;3299;42.004;24.868;2024-02-15T01:07:10;98504.88;;;9.66;56.10
6532;BME280;3299;42.004;24.868;2024-02-15T01:09:36;98419.13;;;9.20;56.15
6532;BME280;3299;42.004;24.868;2024-02-15T01:12:01;98440.03;;;9.30;55.88
6532;BME280;3299;42.004;24.868;2024-02-15T01:14:29;98463.88;;;9.47;55.35
6532;BME280;3299;42.004;24.868;2024-02-15T01:16:56;98445.56;;;9.38;55.46
6532;BME280;3299;42.004;24.868;2024-02-15T01:19:22;98483.69;;;9.47;55.33
6532;BME280;3299;42.004;24.868;2024-02-15T01:21:47;98515.47;;;9.61;55.86
6532;BME280;3299;42.004;24.868;2024-02-15T01:24:12;98458.22;;;9.28;56.11
6532;BME280;3299;42.004;24.868;2024-02-15T01:26:38;98479.31;;;9.35;56.27
6532;BME280;3299;42.004;24.868;2024-02-15T01:29:03;98473.63;;;9.16;56.11
6532;BME280;3299;42.004;24.868;2024-02-15T01:31:29;98473.16;;;9.09;56.77
6532;BME280;3299;42.004;24.868;2024-02-15T01:33:54;98421.72;;;8.80;57.15
6532;BME280;3299;42.004;24.868;2024-02-15T01:36:20;98487.38;;;9.16;57.17
6532;BME280;3299;42.004;24.868;2024-02-15T01:38:45;98457.00;;;8.93;56.95
6532;BME280;3299;42.004;24.868;2024-02-15T01:41:11;98434.88;;;8.89;57.46
6532;BME280;3299;42.004;24.868;2024-02-15T01:43:37;98504.09;;;9.37;56.16
6532;BME280;3299;42.004;24.868;2024-02-15T01:46:07;98506.31;;;9.43;56.15
6532;BME280;3299;42.004;24.868;2024-02-15T01:48:39;98458.53;;;9.10;56.81
6532;BME280;3299;42.004;24.868;2024-02-15T01:51:06;98498.78;;;9.26;56.92
6532;BME280;3299;42.004;24.868;2024-02-15T01:53:32;98459.53;;;9.07;55.98
6532;BME280;3299;42.004;24.868;2024-02-15T01:55:58;98502.63;;;9.33;56.38
6532;BME280;3299;42.004;24.868;2024-02-15T01:58:25;98510.00;;;9.39;56.68
6532;BME280;3299;42.004;24.868;2024-02-15T02:00:53;98482.94;;;9.18;56.93
6532;BME280;3299;42.004;24.868;2024-02-15T02:03:21;98454.13;;;8.98;57.24
6532;BME280;3299;42.004;24.868;2024-02-15T02:05:47;98502.84;;;9.30;57.18
6532;BME280;3299;42.004;24.868;2024-02-15T02:08:12;98520.69;;;9.33;56.74
6532;BME280;3299;42.004;24.868;2024-02-15T02:10:39;98430.53;;;8.76;56.79
6532;BME280;3299;42.004;24.868;2024-02-15T02:13:04;98458.81;;;8.91;56.28
6532;BME280;3299;42.004;24.868;2024-02-15T02:15:33;98497.53;;;9.05;57.20
6532;BME280;3299;42.004;24.868;2024-02-15T02:18:00;98495.19;;;9.01;57.28
6532;BME280;3299;42.004;24.868;2024-02-15T02:20:26;98436.38;;;8.65;56.85
6532;BME280;3299;42.004;24.868;2024-02-15T02:22:53;98489.06;;;8.89;57.25
6532;BME280;3299;42.004;24.868;2024-02-15T02:25:23;98442.25;;;8.67;56.89
6532;BME280;3299;42.004;24.868;2024-02-15T02:27:51;98444.66;;;8.70;56.32
6532;BME280;3299;42.004;24.868;2024-02-15T02:30:17;98525.00;;;9.06;56.69
6532;BME280;3299;42.004;24.868;2024-02-15T02:32:44;98537.91;;;9.06;57.27
6532;BME280;3299;42.004;24.868;2024-02-15T02:35:10;98476.78;;;8.65;58.78
6532;BME280;3299;42.004;24.868;2024-02-15T02:37:38;98503.78;;;8.73;59.22
6532;BME280;3299;42.004;24.868;2024-02-15T02:40:05;98521.75;;;8.89;60.67
6532;BME280;3299;42.004;24.868;2024-02-15T02:42:53;98531.63;;;8.82;61.17
6532;BME280;3299;42.004;24.868;2024-02-15T02:45:24;98445.56;;;8.41;59.30
6532;BME280;3299;42.004;24.868;2024-02-15T02:47:53;98438.66;;;8.42;57.94
6532;BME280;3299;42.004;24.868;2024-02-15T02:50:20;98509.13;;;8.84;58.27
6532;BME280;3299;42.004;24.868;2024-02-15T02:52:47;98536.06;;;8.94;59.45
6532;BME280;3299;42.004;24.868;2024-02-15T02:55:14;98540.09;;;8.98;58.39
6532;BME280;3299;42.004;24.868;2024-02-15T02:57:39;98487.38;;;8.74;57.71
6532;BME280;3299;42.004;24.868;2024-02-15T03:00:06;98530.31;;;9.03;57.38
6532;BME280;3299;42.004;24.868;2024-02-15T03:02:38;98503.59;;;8.90;57.28
6532;BME280;3299;42.004;24.868;2024-02-15T03:05:04;98521.47;;;9.07;56.96
6532;BME280;3299;42.004;24.868;2024-02-15T03:07:34;98477.63;;;8.65;57.10
6532;BME280;3299;42.004;24.868;2024-02-15T03:10:04;98529.25;;;8.93;57.63
6532;BME280;3299;42.004;24.868;2024-02-15T03:12:30;98512.28;;;8.89;58.79
6532;BME280;3299;42.004;24.868;2024-02-15T03:14:55;98444.16;;;8.36;59.63
6532;BME280;3299;42.004;24.868;2024-02-15T03:17:23;98458.09;;;8.47;59.93
6532;BME280;3299;42.004;24.868;2024-02-15T03:19:48;98426.97;;;8.07;63.17
6532;BME280;3299;42.004;24.868;2024-02-15T03:22:14;98465.50;;;8.24;63.80
6532;BME280;3299;42.004;24.868;2024-02-15T03:24:40;98421.25;;;8.02;64.50
6532;BME280;3299;42.004;24.868;2024-02-15T03:27:05;98419.50;;;8.02;65.32
6532;BME280;3299;42.004;24.868;2024-02-15T03:29:31;98500.81;;;8.51;65.35
6532;BME280;3299;42.004;24.868;2024-02-15T03:31:56;98493.84;;;8.53;64.39
6532;BME280;3299;42.004;24.868;2024-02-15T03:34:21;98433.25;;;8.17;64.54
6532;BME280;3299;42.004;24.868;2024-02-15T03:36:49;98482.97;;;8.48;63.20
6532;BME280;3299;42.004;24.868;2024-02-15T03:39:19;98457.13;;;8.34;64.11
6532;BME280;3299;42.004;24.868;2024-02-15T03:41:44;98479.63;;;8.46;64.49
6532;BME280;3299;42.004;24.868;2024-02-15T03:44:11;98435.34;;;8.10;65.78
6532;BME280;3299;42.004;24.868;2024-02-15T03:46:43;98459.88;;;8.17;66.31
6532;BME280;3299;42.004;24.868;2024-02-15T03:49:08;98448.59;;;8.04;65.21
6532;BME280;3299;42.004;24.868;2024-02-15T03:51:36;98466.34;;;8.24;64.57
6532;BME280;3299;42.004;24.868;2024-02-15T03:54:01;98502.19;;;8.43;65.65
6532;BME280;3299;42.004;24.868;2024-02-15T03:56:29;98443.34;;;8.06;65.40
6532;BME280;3299;42.004;24.868;2024-02-15T03:58:56;98523.63;;;8.29;65.05
6532;BME280;3299;42.004;24.868;2024-02-15T04:01:22;98491.19;;;8.25;64.10
6532;BME280;3299;42.004;24.868;2024-02-15T04:03:48;98462.88;;;8.10;64.50
6532;BME280;3299;42.004;24.868;2024-02-15T04:06:13;98453.75;;;8.04;63.88
6532;BME280;3299;42.004;24.868;2024-02-15T04:08:39;98477.47;;;8.25;62.09
6532;BME280;3299;42.004;24.868;2024-02-15T04:11:05;98516.13;;;8.54;62.23
6532;BME280;3299;42.004;24.868;2024-02-15T04:13:35;98530.88;;;8.66;62.43
6532;BME280;3299;42.004;24.868;2024-02-15T04:16:00;98467.44;;;8.34;62.75
6532;BME280;3299;42.004;24.868;2024-02-15T04:18:26;98528.84;;;8.71;63.03
6532;BME280;3299;42.004;24.868;2024-02-15T04:20:51;98477.03;;;8.46;62.88
6532;BME280;3299;42.004;24.868;2024-02-15T04:23:17;98526.63;;;8.79;63.15
6532;BME280;3299;42.004;24.868;2024-02-15T04:25:44;98527.91;;;8.86;63.58
6532;BME280;3299;42.004;24.868;2024-02-15T04:28:11;98508.13;;;8.73;64.41
6532;BME280;3299;42.004;24.868;2024-02-15T04:30:37;98446.81;;;8.34;64.79
6532;BME280;3299;42.004;24.868;2024-02-15T04:33:04;98493.28;;;8.62;65.84
6532;BME280;3299;42.004;24.868;2024-02-15T04:35:30;98531.34;;;8.87;65.50
6532;BME280;3299;42.004;24.868;2024-02-15T04:37:56;98456.13;;;8.37;64.89
6532;BME280;3299;42.004;24.868;2024-02-15T04:40:21;98447.22;;;8.42;61.87
6532;BME280;3299;42.004;24.868;2024-02-15T04:42:46;98449.72;;;8.44;60.78
6532;BME280;3299;42.004;24.868;2024-02-15T04:45:12;98439.22;;;8.47;61.84
6532;BME280;3299;42.004;24.868;2024-02-15T04:47:40;98472.00;;;8.59;62.16
6532;BME280;3299;42.004;24.868;2024-02-15T04:50:09;98462.78;;;8.41;62.22
6532;BME280;3299;42.004;24.868;2024-02-15T04:52:34;98497.13;;;8.69;62.54
6532;BME280;3299;42.004;24.868;2024-02-15T04:55:00;98519.81;;;8.92;61.78
6532;BME280;3299;42.004;24.868;2024-02-15T04:57:26;98463.25;;;8.61;60.00
6532;BME280;3299;42.004;24.868;2024-02-15T04:59:54;98457.91;;;8.50;60.43
6532;BME280;3299;42.004;24.868;2024-02-15T05:02:19;98494.94;;;8.77;61.24
6532;BME280;3299;42.004;24.868;2024-02-15T05:04:45;98493.47;;;8.73;61.16
6532;BME280;3299;42.004;24.868;2024-02-15T05:07:10;98542.50;;;9.01;62.22
6532;BME280;3299;42.004;24.868;2024-02-15T05:09:36;98514.66;;;8.78;62.78
6532;BME280;3299;42.004;24.868;2024-02-15T05:12:01;98531.91;;;8.92;62.80
6532;BME280;3299;42.004;24.868;2024-02-15T05:14:30;98543.41;;;8.86;64.78
6532;BME280;3299;42.004;24.868;2024-02-15T05:16:56;98503.50;;;8.64;64.78
6532;BME280;3299;42.004;24.868;2024-02-15T05:19:21;98463.97;;;8.49;64.92
6532;BME280;3299;42.004;24.868;2024-02-15T05:21:47;98473.09;;;8.41;65.22
6532;BME280;3299;42.004;24.868;2024-02-15T05:24:13;98529.78;;;8.70;64.79
6532;BME280;3299;42.004;24.868;2024-02-15T05:26:46;98509.50;;;8.64;63.45
6532;BME280;3299;42.004;24.868;2024-02-15T05:29:12;98476.50;;;8.55;61.74
6532;BME280;3299;42.004;24.868;2024-02-15T05:31:38;98565.53;;;8.90;63.70
6532;BME280;3299;42.004;24.868;2024-02-15T05:34:06;98533.25;;;8.69;64.01
6532;BME280;3299;42.004;24.868;2024-02-15T05:36:37;98476.31;;;8.44;64.51
6532;BME280;3299;42.004;24.868;2024-02-15T05:39:03;98456.25;;;8.35;64.28
6532;BME280;3299;42.004;24.868;2024-02-15T05:41:30;98531.34;;;8.87;62.35
6532;BME280;3299;42.004;24.868;2024-02-15T05:43:57;98528.50;;;8.77;63.06
6532;BME280;3299;42.004;24.868;2024-02-15T05:46:23;98579.94;;;9.22;60.13
6532;BME280;3299;42.004;24.868;2024-02-15T05:48:49;98499.34;;;8.75;61.53
6532;BME280;3299;42.004;24.868;2024-02-15T05:51:16;98537.88;;;8.92;61.38
6532;BME280;3299;42.004;24.868;2024-02-15T05:53:43;98559.28;;;9.08;60.26
6532;BME280;3299;42.004;24.868;2024-02-15T05:56:09;98548.97;;;8.94;60.64
6532;BME280;3299;42.004;24.868;2024-02-15T05:58:38;98547.66;;;9.01;60.15
6532;BME280;3299;42.004;24.868;2024-02-15T06:01:05;98598.66;;;9.26;59.87
6532;BME280;3299;42.004;24.868;2024-02-15T06:03:33;98507.66;;;8.80;58.84
6532;BME280;3299;42.004;24.868;2024-02-15T06:06:01;98511.34;;;8.76;58.86
6532;BME280;3299;42.004;24.868;2024-02-15T06:08:32;98515.88;;;8.73;58.93
6532;BME280;3299;42.004;24.868;2024-02-15T06:10:57;98518.53;;;8.71;59.58
6532;BME280;3299;42.004;24.868;2024-02-15T06:13:24;98582.50;;;9.08;59.62
6532;BME280;3299;42.004;24.868;2024-02-15T06:15:50;98530.88;;;8.80;59.08
6532;BME280;3299;42.004;24.868;2024-02-15T06:18:23;98604.06;;;9.21;58.62
6532;BME280;3299;42.004;24.868;2024-02-15T06:20:53;98593.75;;;9.21;58.93
6532;BME280;3299;42.004;24.868;2024-02-15T06:23:19;98548.56;;;8.86;58.65
6532;BME280;3299;42.004;24.868;2024-02-15T06:25:46;98619.03;;;9.30;58.45
6532;BME280;3299;42.004;24.868;2024-02-15T06:28:15;98615.03;;;9.25;58.29
6532;BME280;3299;42.004;24.868;2024-02-15T06:30:58;98619.38;;;9.24;58.60
6532;BME280;3299;42.004;24.868;2024-02-15T06:33:42;98622.97;;;9.22;58.54
6532;BME280;3299;42.004;24.868;2024-02-15T06:36:26;98556.31;;;8.72;59.04
6532;BME280;3299;42.004;24.868;2024-02-15T06:39:10;98563.59;;;8.80;58.76
6532;BME280;3299;42.004;24.868;2024-02-15T06:41:54;98577.41;;;8.79;59.18
6532;BME280;3299;42.004;24.868;2024-02-15T06:44:19;98601.50;;;8.93;59.70
6532;BME280;3299;42.004;24.868;2024-02-15T06:46:45;98578.06;;;8.82;59.51
6532;BME280;3299;42.004;24.868;2024-02-15T06:49:11;98576.94;;;8.86;59.11
6532;BME280;3299;42.004;24.868;2024-02-15T06:51:37;98569.84;;;8.90;59.42
6532;BME280;3299;42.004;24.868;2024-02-15T06:54:05;98545.78;;;8.75;59.19
6532;BME280;3299;42.004;24.868;2024-02-15T06:56:30;98608.03;;;9.13;59.77
6532;BME280;3299;42.004;24.868;2024-02-15T06:58:55;98615.16;;;9.23;58.94
6532;BME280;3299;42.004;24.868;2024-02-15T07:01:23;98635.81;;;9.37;58.86
6532;BME280;3299;42.004;24.868;2024-02-15T07:03:49;98582.88;;;9.16;58.84
6532;BME280;3299;42.004;24.868;2024-02-15T07:06:16;98629.09;;;9.49;58.68
6532;BME280;3299;42.004;24.868;2024-02-15T07:08:42;98619.75;;;9.32;58.90
6532;BME280;3299;42.004;24.868;2024-02-15T07:11:07;98569.22;;;9.14;58.84
6532;BME280;3299;42.004;24.868;2024-02-15T07:13:37;98568.94;;;9.19;58.85
6532;BME280;3299;42.004;24.868;2024-02-15T07:16:07;98652.13;;;9.79;58.05
6532;BME280;3299;42.004;24.868;2024-02-15T07:18:32;98583.44;;;9.35;57.79
6532;BME280;3299;42.004;24.868;2024-02-15T07:20:58;98660.72;;;9.80;57.51
6532;BME280;3299;42.004;24.868;2024-02-15T07:23:26;98639.66;;;9.72;57.34
6532;BME280;3299;42.004;24.868;2024-02-15T07:25:52;98654.59;;;9.81;57.10
6532;BME280;3299;42.004;24.868;2024-02-15T07:28:19;98559.63;;;9.30;57.34
6532;BME280;3299;42.004;24.868;2024-02-15T07:30:46;98647.13;;;9.76;57.23
6532;BME280;3299;42.004;24.868;2024-02-15T07:33:14;98649.44;;;9.81;57.97
6532;BME280;3299;42.004;24.868;2024-02-15T07:35:42;98652.66;;;9.84;57.65
6532;BME280;3299;42.004;24.868;2024-02-15T07:38:08;98655.97;;;9.86;57.92
6532;BME280;3299;42.004;24.868;2024-02-15T07:40:33;98633.63;;;9.85;58.01
6532;BME280;3299;42.004;24.868;2024-02-15T07:42:59;98635.38;;;9.85;56.99
6532;BME280;3299;42.004;24.868;2024-02-15T07:45:24;98652.44;;;10.01;57.84
6532;BME280;3299;42.004;24.868;2024-02-15T07:47:50;98643.84;;;10.01;57.58
6532;BME280;3299;42.004;24.868;2024-02-15T07:50:18;98617.66;;;9.93;56.99
6532;BME280;3299;42.004;24.868;2024-02-15T07:52:48;98639.31;;;10.18;56.84
6532;BME280;3299;42.004;24.868;2024-02-15T07:55:14;98614.66;;;10.13;56.58
6532;BME280;3299;42.004;24.868;2024-02-15T07:57:40;98616.16;;;10.17;57.01
6532;BME280;3299;42.004;24.868;2024-02-15T08:00:06;98595.06;;;10.23;56.46
6532;BME280;3299;42.004;24.868;2024-02-15T08:02:37;98649.19;;;10.65;55.85
6532;BME280;3299;42.004;24.868;2024-02-15T08:05:03;98627.66;;;10.52;55.94
6532;BME280;3299;42.004;24.868;2024-02-15T08:07:31;98602.47;;;10.41;55.75
6532;BME280;3299;42.004;24.868;2024-02-15T08:09:58;98636.63;;;10.73;55.63
6532;BME280;3299;42.004;24.868;2024-02-15T08:12:25;98620.28;;;10.85;55.87
6532;BME280;3299;42.004;24.868;2024-02-15T08:14:51;98565.47;;;10.53;55.26
6532;BME280;3299;42.004;24.868;2024-02-15T08:17:17;98594.38;;;10.72;54.50
6532;BME280;3299;42.004;24.868;2024-02-15T08:19:42;98647.66;;;11.14;54.26
6532;BME280;3299;42.004;24.868;2024-02-15T08:22:08;98638.94;;;11.15;53.93
6532;BME280;3299;42.004;24.868;2024-02-15T08:24:33;98600.59;;;10.95;54.34
6532;BME280;3299;42.004;24.868;2024-02-15T08:26:58;98622.16;;;11.08;54.64
6532;BME280;3299;42.004;24.868;2024-02-15T08:29:25;98583.41;;;10.94;54.25
6532;BME280;3299;42.004;24.868;2024-02-15T08:31:50;98654.28;;;11.43;53.86
6532;BME280;3299;42.004;24.868;2024-02-15T08:34:16;98650.13;;;11.40;53.71
6532;BME280;3299;42.004;24.868;2024-02-15T08:36:44;98662.97;;;11.54;53.30
6532;BME280;3299;42.004;24.868;2024-02-15T08:39:09;98594.06;;;11.14;53.17
6532;BME280;3299;42.004;24.868;2024-02-15T08:41:38;98602.28;;;11.21;52.61
6532;BME280;3299;42.004;24.868;2024-02-15T08:44:04;98652.41;;;11.45;52.42
6532;BME280;3299;42.004;24.868;2024-02-15T08:46:34;98628.34;;;11.18;53.08
6532;BME280;3299;42.004;24.868;2024-02-15T08:49:01;98615.28;;;11.07;52.56
6532;BME280;3299;42.004;24.868;2024-02-15T08:51:29;98637.69;;;11.08;52.79
6532;BME280;3299;42.004;24.868;2024-02-15T08:53:55;98668.47;;;11.12;53.24
6532;BME280;3299;42.004;24.868;2024-02-15T08:56:21;98602.56;;;10.79;53.22
6532;BME280;3299;42.004;24.868;2024-02-15T08:58:48;98650.94;;;11.16;53.17
6532;BME280;3299;42.004;24.868;2024-02-15T09:01:14;98642.88;;;11.08;53.31
6532;BME280;3299;42.004;24.868;2024-02-15T09:03:39;98631.34;;;11.12;53.23
6532;BME280;3299;42.004;24.868;2024-02-15T09:06:04;98596.66;;;11.02;52.46
6532;BME280;3299;42.004;24.868;2024-02-15T09:08:30;98669.81;;;11.55;52.08
6532;BME280;3299;42.004;24.868;2024-02-15T09:10:58;98669.84;;;11.68;52.21
6532;BME280;3299;42.004;24.868;2024-02-15T09:13:23;98647.53;;;11.65;51.88
6532;BME280;3299;42.004;24.868;2024-02-15T09:15:49;98626.28;;;11.60;51.32
6532;BME280;3299;42.004;24.868;2024-02-15T09:18:15;98613.25;;;11.62;50.86
6532;BME280;3299;42.004;24.868;2024-02-15T09:20:43;98620.88;;;11.76;50.89
6532;BME280;3299;42.004;24.868;2024-02-15T09:23:10;98623.34;;;11.77;51.09
6532;BME280;3299;42.004;24.868;2024-02-15T09:25:40;98595.28;;;11.71;50.60
6532;BME280;3299;42.004;24.868;2024-02-15T09:28:08;98642.19;;;12.04;50.57
6532;BME280;3299;42.004;24.868;2024-02-15T09:30:34;98655.00;;;12.06;50.39
6532;BME280;3299;42.004;24.868;2024-02-15T09:33:01;98647.53;;;12.14;50.42
6532;BME280;3299;42.004;24.868;2024-02-15T09:35:30;98598.88;;;11.81;49.61
6532;BME280;3299;42.004;24.868;2024-02-15T09:37:56;98637.00;;;12.04;49.58
6532;BME280;3299;42.004;24.868;2024-02-15T09:40:21;98636.38;;;12.01;50.06
6532;BME280;3299;42.004;24.868;2024-02-15T09:42:51;98563.44;;;11.57;50.63
6532;BME280;3299;42.004;24.868;2024-02-15T09:45:18;98581.28;;;11.74;49.77
6532;BME280;3299;42.004;24.868;2024-02-15T09:47:46;98616.69;;;11.98;49.93
6532;BME280;3299;42.004;24.868;2024-02-15T09:50:16;98557.25;;;11.72;49.73
6532;BME280;3299;42.004;24.868;2024-02-15T09:52:52;98599.84;;;12.04;49.02
6532;BME280;3299;42.004;24.868;2024-02-15T09:55:20;98637.66;;;12.19;49.27
6532;BME280;3299;42.004;24.868;2024-02-15T09:57:50;98588.63;;;12.03;48.91
6532;BME280;3299;42.004;24.868;2024-02-15T10:00:16;98550.97;;;11.74;49.30
6532;BME280;3299;42.004;24.868;2024-02-15T10:02:43;98544.09;;;11.86;49.08
6532;BME280;3299;42.004;24.868;2024-02-15T10:05:12;98606.00;;;12.37;49.24
6532;BME280;3299;42.004;24.868;2024-02-15T10:07:41;98562.31;;;12.20;48.79
6532;BME280;3299;42.004;24.868;2024-02-15T10:10:23;98605.63;;;12.54;48.62
6532;BME280;3299;42.004;24.868;2024-02-15T10:12:50;98532.66;;;12.12;48.90
6532;BME280;3299;42.004;24.868;2024-02-15T10:15:32;98595.84;;;12.58;48.29
6532;BME280;3299;42.004;24.868;2024-02-15T10:17:59;98525.28;;;12.18;48.94
6532;BME280;3299;42.004;24.868;2024-02-15T10:20:25;98606.53;;;12.77;48.08
6532;BME280;3299;42.004;24.868;2024-02-15T10:25:29;98587.41;;;12.78;48.64
6532;BME280;3299;42.004;24.868;2024-02-15T10:28:11;98519.94;;;12.43;47.91
6532;BME280;3299;42.004;24.868;2024-02-15T10:30:38;98604.50;;;13.04;47.61
6532;BME280;3299;42.004;24.868;2024-02-15T10:33:05;98584.91;;;13.00;47.86
6532;BME280;3299;42.004;24.868;2024-02-15T10:35:32;98596.22;;;12.99;47.03
6532;BME280;3299;42.004;24.868;2024-02-15T10:38:07;98543.75;;;12.72;47.54
6532;BME280;3299;42.004;24.868;2024-02-15T10:40:37;98509.03;;;12.62;47.84
6532;BME280;3299;42.004;24.868;2024-02-15T10:43:03;98556.34;;;13.00;47.22
6532;BME280;3299;42.004;24.868;2024-02-15T10:45:31;98588.25;;;13.24;46.96
6532;BME280;3299;42.004;24.868;2024-02-15T10:47:57;98551.59;;;13.05;47.00
6532;BME280;3299;42.004;24.868;2024-02-15T10:50:23;98591.44;;;13.38;46.60
6532;BME280;3299;42.004;24.868;2024-02-15T10:52:55;98514.63;;;13.01;46.67
6532;BME280;3299;42.004;24.868;2024-02-15T10:58:33;98544.50;;;13.51;45.62
6532;BME280;3299;42.004;24.868;2024-02-15T11:01:06;98594.94;;;13.92;45.34
6532;BME280;3299;42.004;24.868;2024-02-15T11:03:43;98540.69;;;13.77;44.80
6532;BME280;3299;42.004;24.868;2024-02-15T11:06:13;98585.28;;;14.15;44.96
6532;BME280;3299;42.004;24.868;2024-02-15T11:08:40;98586.69;;;14.30;44.25
6532;BME280;3299;42.004;24.868;2024-02-15T11:11:06;98521.03;;;13.95;44.12
6532;BME280;3299;42.004;24.868;2024-02-15T11:13:32;98537.63;;;14.14;43.87
6532;BME280;3299;42.004;24.868;2024-02-15T11:15:58;98514.34;;;14.13;44.05
6532;BME280;3299;42.004;24.868;2024-02-15T11:18:45;98571.56;;;14.55;43.48
6532;BME280;3299;42.004;24.868;2024-02-15T11:21:25;98534.06;;;14.26;43.29
6532;BME280;3299;42.004;24.868;2024-02-15T11:24:28;98570.28;;;14.50;42.91
6532;BME280;3299;42.004;24.868;2024-02-15T11:27:00;98565.34;;;14.47;43.34
6532;BME280;3299;42.004;24.868;2024-02-15T11:32:40;98569.16;;;14.84;42.62
6532;BME280;3299;42.004;24.868;2024-02-15T11:42:53;98519.00;;;14.91;41.41
6532;BME280;3299;42.004;24.868;2024-02-15T11:45:19;98504.78;;;14.95;41.17
6532;BME280;3299;42.004;24.868;2024-02-15T11:47:49;98554.38;;;15.35;41.40
6532;BME280;3299;42.004;24.868;2024-02-15T11:50:16;98518.03;;;15.13;41.21
6532;BME280;3299;42.004;24.868;2024-02-15T11:52:49;98549.75;;;15.48;41.34
6532;BME280;3299;42.004;24.868;2024-02-15T11:55:22;98495.56;;;15.21;42.22
6532;BME280;3299;42.004;24.868;2024-02-15T11:57:57;98473.63;;;15.24;41.22
6532;BME280;3299;42.004;24.868;2024-02-15T12:00:36;98548.47;;;15.82;40.11
6532;BME280;3299;42.004;24.868;2024-02-15T12:03:21;98556.44;;;15.80;40.08
6532;BME280;3299;42.004;24.868;2024-02-15T12:06:06;98544.66;;;15.86;40.22
6532;BME280;3299;42.004;24.868;2024-02-15T12:08:52;98484.34;;;15.30;39.56
6532;BME280;3299;42.004;24.868;2024-02-15T12:11:37;98468.91;;;15.08;39.93
6532;BME280;3299;42.004;24.868;2024-02-15T12:14:21;98506.28;;;15.28;39.76
6532;BME280;3299;42.004;24.868;2024-02-15T12:17:13;98534.38;;;15.45;39.72
6532;BME280;3299;42.004;24.868;2024-02-15T12:20:01;98539.34;;;15.57;40.10
6532;BME280;3299;42.004;24.868;2024-02-15T12:22:50;98539.13;;;15.70;39.86
6532;BME280;3299;42.004;24.868;2024-02-15T12:25:16;98496.34;;;15.42;39.96
6532;BME280;3299;42.004;24.868;2024-02-15T12:27:43;98534.75;;;15.80;39.83
6532;BME280;3299;42.004;24.868;2024-02-15T12:30:16;98535.03;;;15.86;40.21
6532;BME280;3299;42.004;24.868;2024-02-15T12:32:51;98461.75;;;15.50;39.55
6532;BME280;3299;42.004;24.868;2024-02-15T12:35:21;98461.06;;;15.38;39.46
6532;BME280;3299;42.004;24.868;2024-02-15T12:40:33;98529.13;;;15.94;39.42
6532;BME280;3299;42.004;24.868;2024-02-15T12:42:59;98542.19;;;16.13;38.90
6532;BME280;3299;42.004;24.868;2024-02-15T12:45:31;98463.91;;;15.84;38.73
6532;BME280;3299;42.004;24.868;2024-02-15T12:47:56;98539.50;;;16.43;38.17
6532;BME280;3299;42.004;24.868;2024-02-15T12:50:23;98550.22;;;16.59;37.83
6532;BME280;3299;42.004;24.868;2024-02-15T12:52:52;98468.84;;;16.16;37.37
6532;BME280;3299;42.004;24.868;2024-02-15T12:55:20;98455.50;;;16.19;37.06
6532;BME280;3299;42.004;24.868;2024-02-15T12:57:53;98538.66;;;16.71;37.42
6532;BME280;3299;42.004;24.868;2024-02-15T13:00:21;98473.50;;;16.31;37.75
6532;BME280;3299;42.004;24.868;2024-02-15T13:02:48;98544.56;;;16.82;37.01
6532;BME280;3299;42.004;24.868;2024-02-15T13:05:17;98470.75;;;16.33;37.69
6532;BME280;3299;42.004;24.868;2024-02-15T13:07:47;98508.16;;;16.62;37.03
6532;BME280;3299;42.004;24.868;2024-02-15T13:10:12;98506.22;;;16.64;37.02
6532;BME280;3299;42.004;24.868;2024-02-15T13:12:43;98536.16;;;16.88;36.50
6532;BME280;3299;42.004;24.868;2024-02-15T13:15:11;98484.91;;;16.59;36.72
6532;BME280;3299;42.004;24.868;2024-02-15T13:17:40;98485.31;;;16.64;36.92
6532;BME280;3299;42.004;24.868;2024-02-15T13:20:06;98540.28;;;16.91;36.52
6532;BME280;3299;42.004;24.868;2024-02-15T13:22:36;98543.84;;;16.90;36.38
6532;BME280;3299;42.004;24.868;2024-02-15T13:25:07;98536.00;;;16.80;36.82
6532;BME280;3299;42.004;24.868;2024-02-15T13:27:37;98497.69;;;16.14;37.60
6532;BME280;3299;42.004;24.868;2024-02-15T13:30:06;98505.41;;;15.97;38.20
6532;BME280;3299;42.004;24.868;2024-02-15T13:32:35;98469.34;;;15.53;38.49
6532;BME280;3299;42.004;24.868;2024-02-15T13:35:01;98479.78;;;15.53;38.73
6532;BME280;3299;42.004;24.868;2024-02-15T13:37:36;98464.03;;;15.24;39.20
6532;BME280;3299;42.004;24.868;2024-02-15T13:40:03;98540.06;;;15.59;39.10
6532;BME280;3299;42.004;24.868;2024-02-15T13:42:28;98536.13;;;15.35;39.35